sensor_id;sensor_type;location;lat;lon;timestamp;pressure;altitude;pressure_sealevel;temperature;humidity
17855;BME280;9053;53.358;6.382;2023-05-01T00:00:48;101920.94;;;10.19;91.49
17855;BME280;9053;53.358;6.382;2023-05-01T00:03:18;101925.34;;;10.20;91.52
17855;BME280;9053;53.358;6.382;2023-05-01T00:05:58;101920.09;;;10.20;91.48
17855;BME280;9053;53.358;6.382;2023-05-01T00:08:32;101914.78;;;10.18;91.38
17855;BME280;9053;53.358;6.382;2023-05-01T04:21:13;101630.47;;;9.06;91.39
17855;BME280;9053;53.358;6.382;2023-05-01T04:23:49;101632.31;;;9.07;91.39
17855;BME280;9053;53.358;6.382;2023-05-01T04:26:23;101627.13;;;9.09;91.50
17855;BME280;9053;53.358;6.382;2023-05-01T04:28:55;101625.31;;;9.08;91.58
17855;BME280;9053;53.358;6.382;2023-05-01T04:31:29;101625.31;;;9.08;91.68
17855;BME280;9053;53.358;6.382;2023-05-01T04:34:01;101627.22;;;9.10;91.75
17855;BME280;9053;53.358;6.382;2023-05-01T04:36:35;101615.88;;;9.12;91.89
17855;BME280;9053;53.358;6.382;2023-05-01T04:39:08;101616.97;;;9.15;92.02
17855;BME280;9053;53.358;6.382;2023-05-01T04:41:40;101606.63;;;9.18;92.11
17855;BME280;9053;53.358;6.382;2023-05-01T04:44:12;101615.78;;;9.26;92.20
17855;BME280;9053;53.358;6.382;2023-05-01T04:46:46;101611.06;;;9.37;92.37
17855;BME280;9053;53.358;6.382;2023-05-01T04:49:29;101614.50;;;9.52;92.52
17855;BME280;9053;53.358;6.382;2023-05-01T04:52:02;101611.94;;;9.72;92.80
17855;BME280;9053;53.358;6.382;2023-05-01T04:54:32;101606.00;;;9.94;92.95
17855;BME280;9053;53.358;6.382;2023-05-01T04:57:02;101606.31;;;10.18;92.90
17855;BME280;9053;53.358;6.382;2023-05-01T04:59:32;101611.91;;;10.44;92.96
17855;BME280;9053;53.358;6.382;2023-05-01T05:02:01;101607.63;;;10.65;92.71
17855;BME280;9053;53.358;6.382;2023-05-01T05:04:36;101611.03;;;10.82;92.06
17855;BME280;9053;53.358;6.382;2023-05-01T05:07:08;101607.22;;;10.95;91.47
17855;BME280;9053;53.358;6.382;2023-05-01T05:09:38;101600.75;;;11.08;91.00
17855;BME280;9053;53.358;6.382;2023-05-01T05:12:08;101603.28;;;11.25;90.60
17855;BME280;9053;53.358;6.382;2023-05-01T05:14:38;101601.31;;;11.41;90.29
17855;BME280;9053;53.358;6.382;2023-05-01T05:17:08;101601.91;;;11.55;89.92
17855;BME280;9053;53.358;6.382;2023-05-01T05:19:38;101597.06;;;11.65;89.51
17855;BME280;9053;53.358;6.382;2023-05-01T05:22:10;101605.59;;;11.81;89.07
17855;BME280;9053;53.358;6.382;2023-05-01T05:24:43;101607.94;;;11.94;88.61
17855;BME280;9053;53.358;6.382;2023-05-01T05:27:13;101597.84;;;12.05;88.20
17855;BME280;9053;53.358;6.382;2023-05-01T05:29:44;101599.16;;;12.16;87.79
17855;BME280;9053;53.358;6.382;2023-05-01T05:32:24;101595.03;;;12.23;87.22
17855;BME280;9053;53.358;6.382;2023-05-01T05:34:55;101588.31;;;12.31;86.80
17855;BME280;9053;53.358;6.382;2023-05-01T05:37:29;101596.28;;;12.32;86.33
17855;BME280;9053;53.358;6.382;2023-05-01T06:21:43;101558.34;;;13.79;84.59
17855;BME280;9053;53.358;6.382;2023-05-01T06:24:17;101558.75;;;13.92;84.31
17855;BME280;9053;53.358;6.382;2023-05-01T06:26:47;101561.66;;;14.01;83.84
17855;BME280;9053;53.358;6.382;2023-05-01T06:29:17;101552.31;;;14.12;83.29
17855;BME280;9053;53.358;6.382;2023-05-01T06:32:01;101560.66;;;14.26;82.80
17855;BME280;9053;53.358;6.382;2023-05-01T06:34:32;101547.00;;;14.41;82.60
17855;BME280;9053;53.358;6.382;2023-05-01T06:37:05;101552.88;;;14.59;82.44
17855;BME280;9053;53.358;6.382;2023-05-01T06:39:37;101552.44;;;14.76;81.97
17855;BME280;9053;53.358;6.382;2023-05-01T06:42:07;101548.31;;;14.85;81.19
17855;BME280;9053;53.358;6.382;2023-05-01T06:52:49;101537.22;;;15.33;79.33
17855;BME280;9053;53.358;6.382;2023-05-01T06:55:23;101539.59;;;15.23;78.79
17855;BME280;9053;53.358;6.382;2023-05-01T06:57:54;101540.38;;;15.19;78.59
17855;BME280;9053;53.358;6.382;2023-05-01T07:00:47;101536.25;;;15.30;78.69
17855;BME280;9053;53.358;6.382;2023-05-01T07:03:18;101543.72;;;15.46;78.52
17855;BME280;9053;53.358;6.382;2023-05-01T07:05:53;101541.50;;;15.65;78.29
17855;BME280;9053;53.358;6.382;2023-05-01T07:08:37;101540.38;;;15.90;78.02
17855;BME280;9053;53.358;6.382;2023-05-01T07:11:13;101537.50;;;16.18;77.85
17855;BME280;9053;53.358;6.382;2023-05-01T07:17:37;101529.13;;;16.83;76.64
17855;BME280;9053;53.358;6.382;2023-05-01T07:20:13;101521.59;;;17.08;76.01
17855;BME280;9053;53.358;6.382;2023-05-01T07:22:46;101528.09;;;17.25;75.09
17855;BME280;9053;53.358;6.382;2023-05-01T07:25:25;101515.00;;;17.36;74.00
17855;BME280;9053;53.358;6.382;2023-05-01T07:27:58;101521.41;;;17.49;73.67
17855;BME280;9053;53.358;6.382;2023-05-01T07:30:35;101511.03;;;17.64;73.47
17855;BME280;9053;53.358;6.382;2023-05-01T07:33:08;101518.41;;;17.84;73.33
17855;BME280;9053;53.358;6.382;2023-05-01T07:35:43;101515.97;;;17.99;72.71
17855;BME280;9053;53.358;6.382;2023-05-01T07:38:14;101510.88;;;18.14;72.77
17855;BME280;9053;53.358;6.382;2023-05-01T07:40:54;101511.06;;;18.28;72.32
17855;BME280;9053;53.358;6.382;2023-05-01T07:43:25;101513.91;;;18.42;71.94
17855;BME280;9053;53.358;6.382;2023-05-01T07:45:56;101511.31;;;18.48;71.47
17855;BME280;9053;53.358;6.382;2023-05-01T07:48:30;101512.28;;;18.56;70.89
17855;BME280;9053;53.358;6.382;2023-05-01T07:51:03;101515.91;;;18.65;70.57
17855;BME280;9053;53.358;6.382;2023-05-01T07:53:35;101509.78;;;18.72;70.60
17855;BME280;9053;53.358;6.382;2023-05-01T07:56:11;101512.56;;;18.78;69.86
17855;BME280;9053;53.358;6.382;2023-05-01T07:58:47;101512.63;;;18.84;69.68
17855;BME280;9053;53.358;6.382;2023-05-01T08:01:18;101510.91;;;18.89;69.37
17855;BME280;9053;53.358;6.382;2023-05-01T08:03:50;101517.16;;;18.93;69.28
17855;BME280;9053;53.358;6.382;2023-05-01T08:06:22;101515.41;;;18.96;69.43
17855;BME280;9053;53.358;6.382;2023-05-01T08:08:56;101516.38;;;19.05;69.47
17855;BME280;9053;53.358;6.382;2023-05-01T08:11:31;101522.63;;;19.07;69.41
17855;BME280;9053;53.358;6.382;2023-05-01T08:14:08;101513.78;;;19.12;69.45
17855;BME280;9053;53.358;6.382;2023-05-01T08:16:47;101513.81;;;19.17;69.19
17855;BME280;9053;53.358;6.382;2023-05-01T08:19:23;101511.22;;;19.24;68.97
17855;BME280;9053;53.358;6.382;2023-05-01T08:22:01;101507.69;;;19.27;68.31
17855;BME280;9053;53.358;6.382;2023-05-01T08:24:30;101509.53;;;19.31;68.37
17855;BME280;9053;53.358;6.382;2023-05-01T08:27:20;101501.56;;;19.36;68.46
17855;BME280;9053;53.358;6.382;2023-05-01T08:29:50;101498.97;;;19.46;68.18
17855;BME280;9053;53.358;6.382;2023-05-01T08:32:21;101499.06;;;19.56;67.94
17855;BME280;9053;53.358;6.382;2023-05-01T08:35:08;101501.84;;;19.68;67.50
17855;BME280;9053;53.358;6.382;2023-05-01T08:37:44;101501.00;;;19.80;67.57
17855;BME280;9053;53.358;6.382;2023-05-01T08:40:16;101503.78;;;19.94;67.34
17855;BME280;9053;53.358;6.382;2023-05-01T08:42:53;101490.47;;;20.03;66.28
17855;BME280;9053;53.358;6.382;2023-05-01T08:45:23;101494.09;;;20.14;66.01
17855;BME280;9053;53.358;6.382;2023-05-01T08:47:54;101491.47;;;20.22;65.31
17855;BME280;9053;53.358;6.382;2023-05-01T08:50:25;101493.28;;;20.29;64.84
17855;BME280;9053;53.358;6.382;2023-05-01T08:53:03;101495.94;;;20.32;64.04
17855;BME280;9053;53.358;6.382;2023-05-01T08:55:35;101496.84;;;20.34;62.75
17855;BME280;9053;53.358;6.382;2023-05-01T08:58:09;101483.50;;;20.34;62.00
17855;BME280;9053;53.358;6.382;2023-05-01T09:00:45;101490.59;;;20.32;61.92
17855;BME280;9053;53.358;6.382;2023-05-01T09:03:38;101484.34;;;20.27;61.54
17855;BME280;9053;53.358;6.382;2023-05-01T09:09:32;101477.19;;;20.26;61.75
17855;BME280;9053;53.358;6.382;2023-05-01T09:12:34;101478.09;;;20.22;61.69
17855;BME280;9053;53.358;6.382;2023-05-01T09:18:39;101476.28;;;20.15;62.55
17855;BME280;9053;53.358;6.382;2023-05-01T09:21:11;101477.16;;;20.12;62.25
17855;BME280;9053;53.358;6.382;2023-05-01T09:23:42;101473.59;;;20.13;61.43
17855;BME280;9053;53.358;6.382;2023-05-01T09:26:15;101473.59;;;20.13;60.98
17855;BME280;9053;53.358;6.382;2023-05-01T09:28:47;101465.63;;;20.16;60.88
17855;BME280;9053;53.358;6.382;2023-05-01T09:31:21;101473.63;;;20.16;60.84
17855;BME280;9053;53.358;6.382;2023-05-01T09:34:04;101465.59;;;20.12;60.61
17855;BME280;9053;53.358;6.382;2023-05-01T09:36:37;101465.59;;;20.12;61.33
17855;BME280;9053;53.358;6.382;2023-05-01T09:39:21;101462.00;;;20.05;60.86
17855;BME280;9053;53.358;6.382;2023-05-01T09:41:54;101466.44;;;20.01;60.75
17855;BME280;9053;53.358;6.382;2023-05-01T09:44:28;101465.50;;;19.92;61.53
17855;BME280;9053;53.358;6.382;2023-05-01T09:46:58;101464.59;;;19.91;62.21
17855;BME280;9053;53.358;6.382;2023-05-01T09:49:46;101468.16;;;19.93;62.10
17855;BME280;9053;53.358;6.382;2023-05-01T09:52:29;101463.75;;;20.03;62.29
17855;BME280;9053;53.358;6.382;2023-05-01T09:55:12;101462.03;;;20.11;61.99
17855;BME280;9053;53.358;6.382;2023-05-01T09:57:49;101454.91;;;20.13;62.01
17855;BME280;9053;53.358;6.382;2023-05-01T10:00:20;101463.84;;;20.17;61.66
17855;BME280;9053;53.358;6.382;2023-05-01T10:03:22;101464.75;;;20.22;61.14
17855;BME280;9053;53.358;6.382;2023-05-01T10:05:58;101461.19;;;20.21;60.91
17855;BME280;9053;53.358;6.382;2023-05-01T10:08:45;101458.53;;;20.21;59.55
17855;BME280;9053;53.358;6.382;2023-05-01T10:11:29;101467.44;;;20.26;60.00
17855;BME280;9053;53.358;6.382;2023-05-01T10:14:06;101465.63;;;20.28;59.98
17855;BME280;9053;53.358;6.382;2023-05-01T10:16:37;101467.47;;;20.31;60.60
17855;BME280;9053;53.358;6.382;2023-05-01T10:19:09;101466.56;;;20.35;60.58
17855;BME280;9053;53.358;6.382;2023-05-01T10:21:42;101465.69;;;20.35;59.79
17855;BME280;9053;53.358;6.382;2023-05-01T10:24:12;101470.13;;;20.36;59.15
17855;BME280;9053;53.358;6.382;2023-05-01T10:27:03;101455.84;;;20.30;58.56
17855;BME280;9053;53.358;6.382;2023-05-01T10:29:37;101462.06;;;20.23;58.84
17855;BME280;9053;53.358;6.382;2023-05-01T10:32:08;101470.97;;;20.22;59.38
17855;BME280;9053;53.358;6.382;2023-05-01T10:34:47;101469.19;;;20.21;59.24
17855;BME280;9053;53.358;6.382;2023-05-01T10:37:26;101463.88;;;20.24;58.96
17855;BME280;9053;53.358;6.382;2023-05-01T10:43:15;101461.22;;;20.32;58.31
17855;BME280;9053;53.358;6.382;2023-05-01T10:45:47;101462.97;;;20.28;59.27
17855;BME280;9053;53.358;6.382;2023-05-01T10:51:19;101470.94;;;20.18;59.07
17855;BME280;9053;53.358;6.382;2023-05-01T10:56:59;101464.69;;;20.09;60.47
17855;BME280;9053;53.358;6.382;2023-05-01T11:00:09;101466.44;;;20.04;59.84
17855;BME280;9053;53.358;6.382;2023-05-01T11:02:39;101466.44;;;20.04;59.89
17855;BME280;9053;53.358;6.382;2023-05-01T11:05:15;101466.44;;;20.01;60.06
17855;BME280;9053;53.358;6.382;2023-05-01T11:08:27;101463.75;;;20.00;61.13
17855;BME280;9053;53.358;6.382;2023-05-01T11:14:05;101458.44;;;20.10;62.03
17855;BME280;9053;53.358;6.382;2023-05-01T11:16:41;101459.38;;;20.14;62.19
17855;BME280;9053;53.358;6.382;2023-05-01T11:22:11;101462.03;;;20.14;60.19
17855;BME280;9053;53.358;6.382;2023-05-01T11:24:42;101453.13;;;20.06;60.40
17855;BME280;9053;53.358;6.382;2023-05-01T11:27:13;101454.81;;;19.92;60.08
17855;BME280;9053;53.358;6.382;2023-05-01T11:29:49;101465.50;;;19.88;60.44
17855;BME280;9053;53.358;6.382;2023-05-01T11:32:23;101464.59;;;19.89;60.68
17855;BME280;9053;53.358;6.382;2023-05-01T11:34:53;101462.78;;;19.87;60.40
17855;BME280;9053;53.358;6.382;2023-05-01T11:37:40;101459.22;;;19.85;60.56
17855;BME280;9053;53.358;6.382;2023-05-01T11:40:21;101461.94;;;19.91;61.67
17855;BME280;9053;53.358;6.382;2023-05-01T11:43:00;101458.41;;;19.94;60.64
17855;BME280;9053;53.358;6.382;2023-05-01T11:45:33;101458.38;;;19.95;60.16
17855;BME280;9053;53.358;6.382;2023-05-01T11:48:04;101452.16;;;19.92;59.86
17855;BME280;9053;53.358;6.382;2023-05-01T11:50:42;101452.13;;;19.93;59.99
17855;BME280;9053;53.358;6.382;2023-05-01T11:53:13;101448.59;;;19.93;59.98
17855;BME280;9053;53.358;6.382;2023-05-01T11:55:44;101453.97;;;19.99;60.33
17855;BME280;9053;53.358;6.382;2023-05-01T11:58:15;101447.72;;;19.97;60.33
17855;BME280;9053;53.358;6.382;2023-05-01T12:00:49;101443.25;;;19.94;60.54
17855;BME280;9053;53.358;6.382;2023-05-01T12:03:20;101444.16;;;19.98;61.45
17855;BME280;9053;53.358;6.382;2023-05-01T12:05:50;101451.31;;;20.03;61.75
17855;BME280;9053;53.358;6.382;2023-05-01T12:08:21;101449.56;;;20.13;62.34
17855;BME280;9053;53.358;6.382;2023-05-01T12:10:53;101444.25;;;20.19;61.31
17855;BME280;9053;53.358;6.382;2023-05-01T12:13:24;101445.16;;;20.21;61.64
17855;BME280;9053;53.358;6.382;2023-05-01T12:15:57;101449.59;;;20.18;61.71
17855;BME280;9053;53.358;6.382;2023-05-01T12:18:29;101448.66;;;20.09;62.00
17855;BME280;9053;53.358;6.382;2023-05-01T12:20:59;101448.66;;;20.06;62.54
17855;BME280;9053;53.358;6.382;2023-05-01T12:23:30;101448.66;;;20.08;62.80
17855;BME280;9053;53.358;6.382;2023-05-01T12:26:01;101459.34;;;20.06;62.96
17855;BME280;9053;53.358;6.382;2023-05-01T12:28:31;101454.88;;;20.05;63.12
17855;BME280;9053;53.358;6.382;2023-05-01T12:31:04;101452.16;;;19.98;63.17
17855;BME280;9053;53.358;6.382;2023-05-01T12:33:34;101449.50;;;19.98;62.66
17855;BME280;9053;53.358;6.382;2023-05-01T12:36:10;101451.25;;;19.89;62.99
17855;BME280;9053;53.358;6.382;2023-05-01T12:38:53;101455.66;;;19.84;62.77
17855;BME280;9053;53.358;6.382;2023-05-01T12:41:32;101447.59;;;19.75;62.21
17855;BME280;9053;53.358;6.382;2023-05-01T12:44:17;101455.59;;;19.71;62.82
17855;BME280;9053;53.358;6.382;2023-05-01T12:46:58;101453.81;;;19.73;63.33
17855;BME280;9053;53.358;6.382;2023-05-01T12:49:29;101451.16;;;19.74;63.42
17855;BME280;9053;53.358;6.382;2023-05-01T12:52:05;101448.50;;;19.74;63.10
17855;BME280;9053;53.358;6.382;2023-05-01T12:54:36;101449.38;;;19.73;62.62
17855;BME280;9053;53.358;6.382;2023-05-01T12:57:08;101449.38;;;19.75;62.74
17855;BME280;9053;53.358;6.382;2023-05-01T12:59:42;101449.41;;;19.76;63.06
17855;BME280;9053;53.358;6.382;2023-05-01T13:02:16;101449.41;;;19.76;63.56
17855;BME280;9053;53.358;6.382;2023-05-01T13:04:49;101452.06;;;19.78;63.31
17855;BME280;9053;53.358;6.382;2023-05-01T13:07:19;101446.75;;;19.79;63.46
17855;BME280;9053;53.358;6.382;2023-05-01T13:09:53;101451.16;;;19.77;63.28
17855;BME280;9053;53.358;6.382;2023-05-01T13:12:32;101461.84;;;19.74;63.29
17855;BME280;9053;53.358;6.382;2023-05-01T13:15:19;101452.06;;;19.73;63.36
17855;BME280;9053;53.358;6.382;2023-05-01T13:17:52;101461.84;;;19.74;63.48
17855;BME280;9053;53.358;6.382;2023-05-01T13:20:28;101458.22;;;19.67;63.10
17855;BME280;9053;53.358;6.382;2023-05-01T13:23:09;101454.59;;;19.62;63.23
17855;BME280;9053;53.358;6.382;2023-05-01T13:25:45;101451.06;;;19.62;63.11
17855;BME280;9053;53.358;6.382;2023-05-01T13:28:33;101451.91;;;19.56;62.79
17855;BME280;9053;53.358;6.382;2023-05-01T13:31:11;101447.38;;;19.44;62.72
17855;BME280;9053;53.358;6.382;2023-05-01T13:33:56;101456.22;;;19.37;63.05
17855;BME280;9053;53.358;6.382;2023-05-01T13:36:33;101455.34;;;19.38;63.00
17855;BME280;9053;53.358;6.382;2023-05-01T13:39:03;101454.47;;;19.38;63.14
17855;BME280;9053;53.358;6.382;2023-05-01T13:41:33;101458.00;;;19.35;63.59
17855;BME280;9053;53.358;6.382;2023-05-01T13:44:05;101458.84;;;19.31;63.47
17855;BME280;9053;53.358;6.382;2023-05-01T13:46:40;101461.47;;;19.27;63.12
17855;BME280;9053;53.358;6.382;2023-05-01T13:49:19;101458.78;;;19.23;63.18
17855;BME280;9053;53.358;6.382;2023-05-01T13:51:56;101456.09;;;19.22;63.42
17855;BME280;9053;53.358;6.382;2023-05-01T13:54:29;101453.38;;;19.13;63.06
17855;BME280;9053;53.358;6.382;2023-05-01T13:57:00;101456.88;;;19.06;63.19
17855;BME280;9053;53.358;6.382;2023-05-01T13:59:39;101451.50;;;19.02;63.31
17855;BME280;9053;53.358;6.382;2023-05-01T14:02:17;101457.72;;;19.00;64.06
17855;BME280;9053;53.358;6.382;2023-05-01T14:04:58;101452.41;;;19.05;63.86
17855;BME280;9053;53.358;6.382;2023-05-01T14:07:30;101451.50;;;19.04;63.45
17855;BME280;9053;53.358;6.382;2023-05-01T14:10:00;101462.19;;;19.06;63.97
17855;BME280;9053;53.358;6.382;2023-05-01T14:12:31;101456.84;;;19.02;64.53
17855;BME280;9053;53.358;6.382;2023-05-01T14:15:02;101459.41;;;18.95;65.25
17855;BME280;9053;53.358;6.382;2023-05-01T14:17:34;101458.47;;;18.85;66.35
17855;BME280;9053;53.358;6.382;2023-05-01T14:20:07;101464.63;;;18.81;66.87
17855;BME280;9053;53.358;6.382;2023-05-01T14:22:42;101458.31;;;18.73;67.58
17855;BME280;9053;53.358;6.382;2023-05-01T14:25:21;101466.19;;;18.64;68.08
17855;BME280;9053;53.358;6.382;2023-05-01T14:27:53;101469.72;;;18.61;68.47
17855;BME280;9053;53.358;6.382;2023-05-01T14:30:26;101458.06;;;18.51;68.60
17855;BME280;9053;53.358;6.382;2023-05-01T14:33:00;101466.81;;;18.40;68.83
17855;BME280;9053;53.358;6.382;2023-05-01T14:35:34;101462.25;;;18.28;69.74
17855;BME280;9053;53.358;6.382;2023-05-01T14:38:08;101462.13;;;18.19;70.61
17855;BME280;9053;53.358;6.382;2023-05-01T14:40:39;101463.84;;;18.16;71.57
17855;BME280;9053;53.358;6.382;2023-05-01T14:43:11;101462.97;;;18.16;72.10
17855;BME280;9053;53.358;6.382;2023-05-01T14:45:43;101459.47;;;18.17;72.84
17855;BME280;9053;53.358;6.382;2023-05-01T14:48:21;101461.16;;;18.13;73.44
17855;BME280;9053;53.358;6.382;2023-05-01T14:50:54;101462.91;;;18.10;73.92
17855;BME280;9053;53.358;6.382;2023-05-01T14:53:25;101465.50;;;18.05;74.59
17855;BME280;9053;53.358;6.382;2023-05-01T14:56:02;101462.78;;;18.01;74.97
17855;BME280;9053;53.358;6.382;2023-05-01T14:58:32;101467.19;;;17.99;75.27
17855;BME280;9053;53.358;6.382;2023-05-01T15:01:02;101461.94;;;18.03;75.98
17855;BME280;9053;53.358;6.382;2023-05-01T15:03:35;101464.59;;;18.03;75.81
17855;BME280;9053;53.358;6.382;2023-05-01T15:06:09;101465.47;;;18.02;76.21
17855;BME280;9053;53.358;6.382;2023-05-01T15:08:40;101472.56;;;18.03;76.72
17855;BME280;9053;53.358;6.382;2023-05-01T15:11:11;101464.59;;;18.02;76.88
17855;BME280;9053;53.358;6.382;2023-05-01T15:13:43;101468.09;;;18.01;77.00
17855;BME280;9053;53.358;6.382;2023-05-01T15:16:15;101468.94;;;17.95;77.07
17855;BME280;9053;53.358;6.382;2023-05-01T15:18:45;101468.94;;;17.95;77.72
17855;BME280;9053;53.358;6.382;2023-05-01T15:21:18;101465.38;;;17.96;77.65
17855;BME280;9053;53.358;6.382;2023-05-01T15:23:48;101474.25;;;17.95;77.77
17855;BME280;9053;53.358;6.382;2023-05-01T15:26:18;101461.72;;;17.88;77.57
17855;BME280;9053;53.358;6.382;2023-05-01T15:28:47;101474.06;;;17.83;77.57
17855;BME280;9053;53.358;6.382;2023-05-01T15:31:17;101472.25;;;17.80;77.73
17855;BME280;9053;53.358;6.382;2023-05-01T15:33:48;101475.84;;;17.84;78.11
17855;BME280;9053;53.358;6.382;2023-05-01T15:36:20;101475.00;;;17.86;78.15
17855;BME280;9053;53.358;6.382;2023-05-01T15:38:51;101483.91;;;17.88;77.98
17855;BME280;9053;53.358;6.382;2023-05-01T15:41:22;101475.91;;;17.87;77.66
17855;BME280;9053;53.358;6.382;2023-05-01T15:43:52;101483.91;;;17.87;77.33
17855;BME280;9053;53.358;6.382;2023-05-01T15:46:21;101491.88;;;17.87;76.53
17855;BME280;9053;53.358;6.382;2023-05-01T15:48:53;101485.59;;;17.82;74.85
17855;BME280;9053;53.358;6.382;2023-05-01T15:51:28;101491.69;;;17.78;73.69
17855;BME280;9053;53.358;6.382;2023-05-01T15:53:58;101491.69;;;17.78;72.29
17855;BME280;9053;53.358;6.382;2023-05-01T15:56:33;101495.13;;;17.69;71.32
17855;BME280;9053;53.358;6.382;2023-05-01T15:59:03;101495.88;;;17.60;71.38
17855;BME280;9053;53.358;6.382;2023-05-01T16:01:34;101494.94;;;17.58;71.14
17855;BME280;9053;53.358;6.382;2023-05-01T16:04:11;101496.75;;;17.59;70.90
17855;BME280;9053;53.358;6.382;2023-05-01T16:06:44;101499.31;;;17.51;70.62
17855;BME280;9053;53.358;6.382;2023-05-01T16:09:14;101496.53;;;17.44;70.70
17855;BME280;9053;53.358;6.382;2023-05-01T16:11:44;101498.22;;;17.39;70.97
17855;BME280;9053;53.358;6.382;2023-05-01T16:14:14;101505.25;;;17.37;71.29
17855;BME280;9053;53.358;6.382;2023-05-01T16:16:44;101492.75;;;17.31;71.14
17855;BME280;9053;53.358;6.382;2023-05-01T16:19:15;101489.09;;;17.26;71.61
17855;BME280;9053;53.358;6.382;2023-05-01T16:21:47;101496.25;;;17.28;72.31
17855;BME280;9053;53.358;6.382;2023-05-01T16:24:17;101498.91;;;17.28;72.93
17855;BME280;9053;53.358;6.382;2023-05-01T16:26:47;101493.66;;;17.33;73.80
17855;BME280;9053;53.358;6.382;2023-05-01T16:29:17;101493.63;;;17.30;74.16
17855;BME280;9053;53.358;6.382;2023-05-01T16:31:47;101497.06;;;17.24;74.08
17855;BME280;9053;53.358;6.382;2023-05-01T16:34:22;101496.91;;;17.14;74.07
17855;BME280;9053;53.358;6.382;2023-05-01T16:36:55;101501.19;;;17.07;74.13
17855;BME280;9053;53.358;6.382;2023-05-01T16:39:28;101503.81;;;17.04;74.75
17855;BME280;9053;53.358;6.382;2023-05-01T16:41:58;101502.84;;;17.00;74.69
17855;BME280;9053;53.358;6.382;2023-05-01T16:44:28;101507.19;;;16.95;74.91
17855;BME280;9053;53.358;6.382;2023-05-01T16:46:58;101507.09;;;16.91;74.99
17855;BME280;9053;53.358;6.382;2023-05-01T16:49:29;101500.91;;;16.90;74.96
17855;BME280;9053;53.358;6.382;2023-05-01T16:52:02;101497.34;;;16.90;74.83
17855;BME280;9053;53.358;6.382;2023-05-01T16:54:31;101512.34;;;16.86;74.79
17855;BME280;9053;53.358;6.382;2023-05-01T16:57:02;101514.03;;;16.81;75.07
17855;BME280;9053;53.358;6.382;2023-05-01T16:59:40;101510.44;;;16.80;75.38
17855;BME280;9053;53.358;6.382;2023-05-01T17:02:10;101515.75;;;16.80;75.59
17855;BME280;9053;53.358;6.382;2023-05-01T17:04:41;101515.75;;;16.80;75.90
17855;BME280;9053;53.358;6.382;2023-05-01T17:07:15;101527.25;;;16.79;76.55
17855;BME280;9053;53.358;6.382;2023-05-01T17:09:45;101510.44;;;16.80;77.24
17855;BME280;9053;53.358;6.382;2023-05-01T17:12:14;101515.75;;;16.79;78.00
17855;BME280;9053;53.358;6.382;2023-05-01T17:14:44;101523.63;;;16.76;78.69
17855;BME280;9053;53.358;6.382;2023-05-01T17:17:14;101519.91;;;16.66;79.31
17855;BME280;9053;53.358;6.382;2023-05-01T17:19:45;101517.09;;;16.58;79.79
17855;BME280;9053;53.358;6.382;2023-05-01T17:22:18;101533.66;;;16.47;80.24
17855;BME280;9053;53.358;6.382;2023-05-01T17:24:49;101535.31;;;16.41;80.65
17855;BME280;9053;53.358;6.382;2023-05-01T17:27:19;101542.25;;;16.33;81.13
17855;BME280;9053;53.358;6.382;2023-05-01T17:29:49;101538.44;;;16.22;81.16
17855;BME280;9053;53.358;6.382;2023-05-01T17:32:19;101535.56;;;16.11;81.66
17855;BME280;9053;53.358;6.382;2023-05-01T17:35:03;101533.53;;;15.99;82.19
17855;BME280;9053;53.358;6.382;2023-05-01T17:37:35;101535.16;;;15.94;82.61
17855;BME280;9053;53.358;6.382;2023-05-01T17:40:08;101534.09;;;15.86;82.96
17855;BME280;9053;53.358;6.382;2023-05-01T17:42:39;101538.38;;;15.79;83.34
17855;BME280;9053;53.358;6.382;2023-05-01T17:45:12;101539.06;;;15.71;83.61
17855;BME280;9053;53.358;6.382;2023-05-01T18:01:45;101571.03;;;15.42;86.12
17855;BME280;9053;53.358;6.382;2023-05-01T18:04:15;101566.56;;;15.41;86.32
17855;BME280;9053;53.358;6.382;2023-05-01T18:06:45;101563.91;;;15.40;86.49
17855;BME280;9053;53.358;6.382;2023-05-01T18:09:15;101569.97;;;15.35;86.73
17855;BME280;9053;53.358;6.382;2023-05-01T18:11:45;101562.75;;;15.30;86.92
17855;BME280;9053;53.358;6.382;2023-05-01T18:14:15;101563.53;;;15.26;87.09
17855;BME280;9053;53.358;6.382;2023-05-01T18:16:47;101569.69;;;15.25;87.49
17855;BME280;9053;53.358;6.382;2023-05-01T18:19:18;101564.38;;;15.25;87.90
17855;BME280;9053;53.358;6.382;2023-05-01T18:21:49;101568.91;;;15.29;88.02
17855;BME280;9053;53.358;6.382;2023-05-01T18:24:19;101567.94;;;15.27;88.21
17855;BME280;9053;53.358;6.382;2023-05-01T18:26:49;101568.94;;;15.30;88.72
17855;BME280;9053;53.358;6.382;2023-05-01T18:29:19;101565.47;;;15.33;88.94
17855;BME280;9053;53.358;6.382;2023-05-01T18:31:51;101570.78;;;15.33;88.88
17855;BME280;9053;53.358;6.382;2023-05-01T18:34:23;101572.41;;;15.28;88.86
17855;BME280;9053;53.358;6.382;2023-05-01T18:36:53;101576.69;;;15.23;89.06
17855;BME280;9053;53.358;6.382;2023-05-01T18:39:23;101580.09;;;15.19;89.03
17855;BME280;9053;53.358;6.382;2023-05-01T18:41:53;101566.63;;;15.09;89.12
17855;BME280;9053;53.358;6.382;2023-05-01T18:44:26;101577.94;;;15.04;89.27
17855;BME280;9053;53.358;6.382;2023-05-01T18:46:59;101579.56;;;14.99;89.44
17855;BME280;9053;53.358;6.382;2023-05-01T18:49:29;101583.91;;;14.97;89.65
17855;BME280;9053;53.358;6.382;2023-05-01T18:51:59;101576.63;;;14.88;89.81
17855;BME280;9053;53.358;6.382;2023-05-01T18:54:30;101586.19;;;14.83;89.96
17855;BME280;9053;53.358;6.382;2023-05-01T18:56:59;101584.31;;;14.79;90.22
17855;BME280;9053;53.358;6.382;2023-05-01T18:59:29;101585.91;;;14.74;90.52
17855;BME280;9053;53.358;6.382;2023-05-01T19:02:02;101583.94;;;14.66;90.81
17855;BME280;9053;53.358;6.382;2023-05-01T19:04:38;101588.19;;;14.60;91.00
17855;BME280;9053;53.358;6.382;2023-05-01T19:19:13;101603.44;;;14.11;92.63
17855;BME280;9053;53.358;6.382;2023-05-01T19:21:58;101598.03;;;14.08;93.04
17855;BME280;9053;53.358;6.382;2023-05-01T19:24:28;101602.44;;;14.07;93.49
17855;BME280;9053;53.358;6.382;2023-05-01T19:27:00;101606.75;;;14.04;93.66